createdAt,value
2019-05-29T00:01:23.751Z,14.4
2019-05-29T00:06:20.291Z,14.2
2019-05-29T00:11:16.608Z,13.9
2019-05-29T00:16:14.405Z,13.7
2019-05-29T00:21:11.512Z,13.4
2019-05-29T00:26:06.348Z,13.4
2019-05-29T00:31:02.627Z,13.9
2019-05-29T00:35:59.384Z,13.7
2019-05-29T00:40:55.718Z,13.6
2019-05-29T00:45:52.133Z,13.6
2019-05-29T00:50:48.245Z,13.5
2019-05-29T00:55:44.808Z,13.3
2019-05-29T01:00:41.151Z,13.1
2019-05-29T01:05:37.916Z,13.1
2019-05-29T01:10:34.029Z,13
2019-05-29T01:15:30.621Z,13.3
2019-05-29T01:20:27.204Z,13.1
2019-05-29T01:25:23.794Z,13.1
2019-05-29T01:30:21.263Z,13.1
2019-05-29T01:35:17.808Z,13
2019-05-29T01:40:19.773Z,12.9
2019-05-29T01:45:09.970Z,12.8
2019-05-29T01:50:06.524Z,12.6
2019-05-29T01:55:03.207Z,12.6
2019-05-29T01:59:59.740Z,12.4
2019-05-29T02:04:56.265Z,12.4
2019-05-29T02:09:52.991Z,12.5
2019-05-29T02:14:49.496Z,12.7
2019-05-29T02:19:46.111Z,12.8
2019-05-29T02:24:42.789Z,12.9
2019-05-29T02:29:39.669Z,12.9
2019-05-29T02:34:36.553Z,13.1
2019-05-29T02:39:33.246Z,13.3
2019-05-29T02:44:30.015Z,13.4
2019-05-29T02:49:28.085Z,13.5
2019-05-29T02:54:24.843Z,13.4
2019-05-29T02:59:20.994Z,13.4
2019-05-29T03:04:17.020Z,13.5
2019-05-29T03:09:13.561Z,13.5
2019-05-29T03:14:10.257Z,13.6
2019-05-29T03:19:06.849Z,13.8
2019-05-29T03:24:03.596Z,14.3
2019-05-29T03:29:00.523Z,15.9
2019-05-29T03:33:57.792Z,17.7
2019-05-29T03:38:55.154Z,18.6
2019-05-29T03:43:52.628Z,18.5
2019-05-29T03:48:50.272Z,20.9
2019-05-29T03:53:48.424Z,22.2
2019-05-29T03:58:46.557Z,23.6
2019-05-29T04:03:44.651Z,24.3
2019-05-29T04:08:42.553Z,25.5
2019-05-29T04:13:40.367Z,25.6
2019-05-29T04:18:38.251Z,26.4
2019-05-29T04:23:36.321Z,26.1
2019-05-29T04:28:34.695Z,24.4
2019-05-29T04:33:32.469Z,27.1
2019-05-29T04:38:28.680Z,28.1
2019-05-29T04:43:25.819Z,25.3
2019-05-29T04:48:22.663Z,26.8
2019-05-29T04:53:19.879Z,28.1
2019-05-29T04:58:17.317Z,27.3
2019-05-29T05:03:14.578Z,28.9
2019-05-29T05:08:11.601Z,24.5
2019-05-29T05:13:07.709Z,27.2
2019-05-29T05:18:05.112Z,29.5
2019-05-29T05:23:02.841Z,30
2019-05-29T05:28:00.664Z,30.2
2019-05-29T05:32:58.542Z,30.7
2019-05-29T05:37:56.218Z,32
2019-05-29T05:42:53.834Z,31
2019-05-29T05:47:57.203Z,31.3
2019-05-29T05:52:48.772Z,31.1
2019-05-29T05:57:45.918Z,32.6
2019-05-29T06:02:43.205Z,31.9
2019-05-29T06:07:40.538Z,32.1
2019-05-29T06:12:38.607Z,32.3
2019-05-29T06:17:34.917Z,32
2019-05-29T06:22:32.862Z,32.7
2019-05-29T06:27:29.288Z,32.5
2019-05-29T06:32:26.807Z,32.9
2019-05-29T06:37:24.163Z,31.6
2019-05-29T06:42:21.222Z,31.7
2019-05-29T06:47:18.428Z,32.3
2019-05-29T06:52:15.687Z,31.9
2019-05-29T06:57:12.811Z,32.8
2019-05-29T07:02:10.005Z,31.1
2019-05-29T07:07:07.093Z,33.3
2019-05-29T07:12:04.303Z,27.4
2019-05-29T07:16:59.890Z,30.2
2019-05-29T07:21:56.825Z,29.9
2019-05-29T07:26:53.115Z,28.1
2019-05-29T07:31:49.337Z,29.1
2019-05-29T07:36:46.124Z,30.4
2019-05-29T07:41:43.655Z,29.7
2019-05-29T07:46:42.136Z,34.4
2019-05-29T07:51:40.480Z,35
2019-05-29T07:56:38.250Z,34.6
2019-05-29T08:01:35.108Z,34
2019-05-29T08:06:32.425Z,34.3
2019-05-29T08:11:29.900Z,34.6
2019-05-29T08:16:27.360Z,35.4
2019-05-29T08:21:24.700Z,36.8
2019-05-29T08:26:22.211Z,36.7
2019-05-29T08:31:19.558Z,35.5
2019-05-29T08:36:16.831Z,36
2019-05-29T08:41:14.355Z,37.7
2019-05-29T08:46:12.166Z,37.4
2019-05-29T08:51:09.588Z,35.6
2019-05-29T08:56:06.805Z,39.2
2019-05-29T09:01:04.425Z,35.2
2019-05-29T09:06:08.301Z,32.5
2019-05-29T09:10:56.110Z,39
2019-05-29T09:15:53.887Z,33.6
2019-05-29T09:21:02.460Z,30.6
2019-05-29T09:25:44.327Z,29.1
2019-05-29T09:30:39.476Z,28.4
2019-05-29T09:35:35.026Z,28.5
2019-05-29T09:40:30.980Z,28.8
2019-05-29T09:45:27.506Z,28.8
2019-05-29T09:50:25.885Z,29.9
2019-05-29T09:55:20.734Z,29.6
2019-05-29T10:00:17.566Z,30.4
2019-05-29T10:05:14.635Z,34.6
2019-05-29T10:10:13.866Z,36.5
2019-05-29T10:15:12.872Z,37.8
2019-05-29T10:20:11.544Z,38.9
2019-05-29T10:25:09.711Z,37.7
2019-05-29T10:30:07.243Z,39.8
2019-05-29T10:35:04.922Z,39.7
2019-05-29T10:40:02.804Z,38.8
2019-05-29T10:45:00.097Z,38.5
2019-05-29T10:49:57.190Z,38.3
2019-05-29T10:54:54.462Z,35.7
2019-05-29T10:59:51.014Z,36.9
2019-05-29T11:04:51.889Z,39.5
2019-05-29T11:09:46.802Z,38.7
2019-05-29T11:14:41.978Z,32.2
2019-05-29T11:19:37.359Z,34.8
2019-05-29T11:24:33.929Z,37.2
2019-05-29T11:29:31.475Z,38.5
2019-05-29T11:34:28.926Z,38.5
2019-05-29T11:39:26.042Z,37
2019-05-29T11:44:22.978Z,37.1
2019-05-29T11:49:19.944Z,35.3
2019-05-29T11:54:15.562Z,32.4
2019-05-29T11:59:11.492Z,33.8
2019-05-29T12:04:23.975Z,36.7
2019-05-29T12:09:05.416Z,35.9
2019-05-29T12:14:02.778Z,37.6
2019-05-29T12:19:00.130Z,36.2
2019-05-29T12:23:58.162Z,34.3
2019-05-29T12:29:00.821Z,34.4
2019-05-29T12:33:50.613Z,35.5
2019-05-29T12:38:47.489Z,32.2
2019-05-29T12:43:44.037Z,32.8
2019-05-29T12:48:40.543Z,33.7
2019-05-29T12:53:37.203Z,32.8
2019-05-29T12:58:33.943Z,32.5
2019-05-29T13:03:30.507Z,32.7
2019-05-29T13:08:27.169Z,32.7
2019-05-29T13:13:23.946Z,34.7
2019-05-29T13:18:20.901Z,35.8
2019-05-29T13:23:17.784Z,36.2
2019-05-29T13:28:15.129Z,36.9
2019-05-29T13:33:12.531Z,37
2019-05-29T13:38:09.660Z,35.6
2019-05-29T13:43:14.430Z,35.5
2019-05-29T13:48:03.473Z,34.8
2019-05-29T13:53:01.242Z,36
2019-05-29T13:57:57.581Z,35.5
2019-05-29T14:02:54.050Z,35.8
2019-05-29T14:07:50.733Z,32.7
2019-05-29T14:12:47.084Z,32.7
2019-05-29T14:17:43.660Z,35
2019-05-29T14:22:40.561Z,35.8
2019-05-29T14:27:37.261Z,34.7
2019-05-29T14:32:33.796Z,30.2
2019-05-29T14:37:29.894Z,28.1
2019-05-29T14:42:26.040Z,28
2019-05-29T14:47:22.029Z,27.9
2019-05-29T14:52:18.241Z,27.6
2019-05-29T14:57:24.625Z,27
2019-05-29T15:02:18.681Z,26.3
2019-05-29T15:07:07.848Z,25.9
2019-05-29T15:12:03.928Z,25.7
2019-05-29T15:16:59.753Z,25.8
2019-05-29T15:21:56.123Z,25.2
2019-05-29T15:26:52.789Z,25.2
2019-05-29T15:31:49.473Z,25
2019-05-29T15:36:45.684Z,24.9
2019-05-29T15:41:42.541Z,25.2
2019-05-29T15:46:39.208Z,25.1
2019-05-29T15:51:35.872Z,25.4
2019-05-29T15:56:32.757Z,24.5
2019-05-29T16:01:29.486Z,24.5
2019-05-29T16:06:26.287Z,24.4
2019-05-29T16:11:25.391Z,24.2
2019-05-29T16:16:19.853Z,23.9
2019-05-29T16:21:16.643Z,23.5
2019-05-29T16:26:13.220Z,23.5
2019-05-29T16:31:10.592Z,23.3
2019-05-29T16:36:06.381Z,23.1
2019-05-29T16:41:03.274Z,22.8
2019-05-29T16:45:59.967Z,22.5
2019-05-29T16:50:56.643Z,22.2
2019-05-29T16:55:54.223Z,21.8
2019-05-29T17:00:50.077Z,21.8
2019-05-29T17:05:46.551Z,21.4
2019-05-29T17:10:43.111Z,21.1
2019-05-29T17:15:39.337Z,20.7
2019-05-29T17:20:36.186Z,20.2
2019-05-29T17:25:32.697Z,19.9
2019-05-29T17:30:29.030Z,19.1
2019-05-29T17:35:25.456Z,18.8
2019-05-29T17:40:25.609Z,18.2
2019-05-29T17:45:22.984Z,17.9
2019-05-29T17:50:18.912Z,17.6
2019-05-29T17:55:13.555Z,17.2
2019-05-29T18:00:10.087Z,16.8
2019-05-29T18:05:06.606Z,16.5
2019-05-29T18:10:02.602Z,16.3
2019-05-29T18:14:59.162Z,16
2019-05-29T18:19:55.578Z,15.8
2019-05-29T18:24:51.965Z,15.6
2019-05-29T18:29:48.299Z,16.6
2019-05-29T18:34:44.977Z,16.2
2019-05-29T18:39:41.263Z,16.5
2019-05-29T18:44:37.761Z,16.6
2019-05-29T18:49:34.352Z,16.5
2019-05-29T18:54:32.966Z,16.8
2019-05-29T18:59:29.422Z,17.1
2019-05-29T19:04:25.487Z,17.1
2019-05-29T19:09:21.726Z,16.9
2019-05-29T19:14:18.531Z,16.8
2019-05-29T19:19:15.196Z,16.7
2019-05-29T19:24:11.998Z,16.6
2019-05-29T19:29:08.163Z,16.5
2019-05-29T19:34:04.846Z,16.5
2019-05-29T19:39:01.460Z,16.6
2019-05-29T19:43:58.260Z,16.5
2019-05-29T19:48:54.916Z,16.6
2019-05-29T19:53:51.569Z,16.4
2019-05-29T19:58:48.231Z,16
2019-05-29T20:03:44.844Z,15.7
2019-05-29T20:08:41.571Z,15.9
2019-05-29T20:13:38.320Z,16
2019-05-29T20:18:35.882Z,16
2019-05-29T20:23:32.518Z,16.2
2019-05-29T20:28:28.514Z,16.3
2019-05-29T20:33:26.017Z,16.5
2019-05-29T20:38:22.749Z,16.5
2019-05-29T20:43:19.648Z,16.5
2019-05-29T20:48:16.441Z,16.6
2019-05-29T20:53:12.930Z,16.6
2019-05-29T20:58:23.403Z,16.8
2019-05-29T21:03:06.310Z,16.8
2019-05-29T21:08:03.060Z,16.8
2019-05-29T21:12:59.765Z,16.7
2019-05-29T21:17:56.472Z,16.8
2019-05-29T21:22:53.294Z,16.9
2019-05-29T21:27:50.043Z,16.8
2019-05-29T21:32:47.014Z,16.8
2019-05-29T21:37:44.387Z,16.7
2019-05-29T21:42:40.697Z,16.7
2019-05-29T21:47:38.776Z,16.7
2019-05-29T21:52:34.321Z,16.6
2019-05-29T21:57:30.959Z,16.4
2019-05-29T22:02:27.359Z,16.3
2019-05-29T22:07:24.152Z,16.2
2019-05-29T22:12:20.846Z,16.2
2019-05-29T22:17:17.526Z,16.1
2019-05-29T22:22:14.145Z,16.1
2019-05-29T22:27:11.005Z,16.2
2019-05-29T22:32:07.775Z,16.1
2019-05-29T22:37:04.406Z,16.1
2019-05-29T22:42:01.764Z,16
2019-05-29T22:46:57.795Z,15.9
2019-05-29T22:51:54.061Z,15.9
2019-05-29T22:56:52.430Z,15.8
2019-05-29T23:01:47.374Z,15.8
2019-05-29T23:06:43.333Z,15.7
2019-05-29T23:11:40.148Z,15.8
2019-05-29T23:16:36.989Z,16
2019-05-29T23:21:33.791Z,15.9
2019-05-29T23:26:30.506Z,15.9
2019-05-29T23:31:27.235Z,15.9
2019-05-29T23:36:23.800Z,15.8
2019-05-29T23:41:20.554Z,15.7
2019-05-29T23:46:17.330Z,15.6
2019-05-29T23:51:14.243Z,15.6
2019-05-29T23:56:10.990Z,15.6
